KL   EN   DA


ASIAQ
Weather Now GREENLAND SURVEY
Sorting:
Along the coast
Alphabetical
Location Updated [WGT/WGST] Temperature [°C] Wind [m/s] Air pressure [hPa] Relative humidity [%] Precipitation [mm]
PresentWind chillSpeedMax
Qaanaaq19.02 02:00-26,9-34,01,1 ⇖1,5996590,0
Kitsissut19.02 02:00-17,1-23,42,6 ⇖3,699672n/a
Kitsissorsuit19.02 02:00-31,7-24,72,6 ⇑5,199474n/a
Upernavik31.12 20:00n/an/a3,4 ⇙3,7980n/an/a
Qaarsut19.02 02:00-19,0-23,70,5 ⇘1,3983560,0
Nuussuaq19.02 02:00-18,1-28,61,0 ⇗1,099071n/a
Qeqertarsuaq19.02 02:00-15,6-19,70,4 ⇘1,6990590,0
Ilulissat19.02 02:00-7,8-16,17,3 ⇐9,598753n/a
Qasigiannguit19.02 02:00-19,1-24,51,0 ⇓3,9987820,0
Aasiaat19.02 02:00-11,7-17,63,0 ⇓3,6988880,0
Attu19.02 02:00-13,7-18,86,7 ⇓9,398990n/a
Kangerlussuaq19.02 02:00-7,6-15,36,3 ⇐7,8982850,0
Sisimiut19.02 02:00-11,9-20,21,3 ⇐1,8988710,0
Maniitsoq19.02 02:00-1,4-6,03,9 ⇙5,6982430,0
Sioralik19.02 02:00-2,0-9,08,2 ⇙10,398455n/a
Niaqornaa18.02 05:00-7,8-12,63,1 ⇙5,198270n/a
Kapisillit19.02 02:00-2,4-6,12,7 ⇖6,9978310,0
Nuuk Skibakke/Sisorarfiit19.02 02:00-2,3-9,78,9 ⇐13,093831n/a
Nuuk Airport19.02 02:00-0,3-7,29,2 ⇐13,497231n/a
Nuuk City19.02 02:00-0,4-5,34,9 ⇐14,0972330,0
Nuuk Siorarsiorfik18.02 12:501,4-5,410,5 ⇙11,997740n/a
Ukiivik19.02 02:000,6-6,611,3 ⇐16,097837n/a
Paamiut19.02 02:000,3-5,98,0 ⇐10,8974n/an/a
Narsarsuaq19.02 02:00-2,7-8,04,6 ⇑6,597778-0,1
Narsaq19.02 02:00-3,3-5,61,5 ⇖3,1977920,2
Nunarsuit19.02 02:00-2,5-5,52,1 ⇗2,697594n/a
Qaqortoq19.02 02:00-3,4-6,82,7 ⇖4,1974910,0
Nanortalik19.02 02:00-3,8-7,12,2 ⇓3,8979980,0
Angisoq19.02 02:00-3,3-7,63,1 ⇙5,197997n/a
Prins Christian Sund31.12 20:00n/an/an/an/an/an/an/a
Ikermiuarsuk19.02 00:00-4,6-16,623,7 ⇓35,097694n/a
Ikermit19.02 02:00-6,8-15,38,2 ⇘10,898894n/a
Kulusuk19.02 02:00-6,4-17,616,6 ⇐24,4995770,1
Tasiilaq19.02 02:00-5,2-9,83,1 ⇓8,3993710,0
Aputiteeq19.02 02:00-10,9-16,73,1 ⇓4,1100882n/a
Ittoqqortoormiit19.02 02:00-21,4-28,02,3 ⇙3,31004700,1
Nerlerit Inaat19.02 02:00-25,4-33,82,9 ⇓11,0101369n/a
Daneborg19.02 02:00-27,9-42,37,7 ⇘10,3101456n/a
Danmarkshavn19.02 02:00-33,9-48,66,1 ⇘6,61015590,1
Henrik Krøyer Holme03.02 08:00-15,3-26,78,8 ⇑11,3101187n/a
Station Nord19.02 02:00-32,8-43,93,6 ⇗4,6100971n/a
Kap Morris Jesup19.02 02:00-31,7-42,01,0 ⇒2,1101269n/a

Advanced version
Data source - Operated by - Disclaimer